Terminal Aerodrome Forecast
Issued by NWS Shreveport, LA

Home | Current Version | Previous Version | Text Only | Print | Product List | Glossary On
Versions: 1 2 3 4 5 6 7 8 9 10 11 12
638
FTUS44 KSHV 241144
TAFMLU
TAF
KMLU 241144Z 2412/2512 00000KT P6SM SCT250
      TEMPO 2412/2415 BKN025
     FM241500 18007KT P6SM FEW030 SCT250
     FM250000 17005KT P6SM SCT150
     FM251000 17005KT P6SM BKN025=

USA.gov is the U.S. government's official web portal to all federal, state and local government web resources and services.